Kacen's sites:

title views votes rating creation
?Kacen Leaves YTMND 2,231 29 (4.62)  2016-03-09
? 683 4 (4.25)  2016-03-09
? 1,133 15 (4.40)  2016-03-09
?100 738 3 (4.00)  2016-03-08
? 682 4 (3.75)  2016-03-08
?β 376 5 (4.40)  2016-03-07
? 701 12 (4.58)  2016-03-07
?good 99 cents cheeser 311 4 (3.75)  2016-03-06
?What Ifs: MurdarMachene Synced It This Way - P... 326 4 (4.50)  2016-03-06
?What Ifs: MurdarMachene Synced It This Way - P... 304 3 (4.33)  2016-03-06
?What Ifs: MurdarMachene Synced It This Way - P... 413 4 (4.50)  2016-03-06
?β 302 4 (4.00)  2016-03-04
?How to be a Wizard - Part II 977 9 (4.33)  2016-03-04
?SkeemBap 455 8 (3.25)  2016-03-03
?good boat 309 4 (4.00)  2016-03-03
?King Vitamanz™ 781 8 (4.38)  2016-03-02
?good joke 282 3 (4.33)  2016-03-01
?BaldFight™ II 685 5 (4.80)  2016-03-01
?99 347 4 (4.25)  2016-02-28
? 201 2 (1.50)  2016-02-28
?BaldFight™ 392 3 (5.00)  2016-02-24
?PillarPerplexion™ 570 3 (4.67)  2016-02-19
?98 309 2 (4.00)  2016-02-15
?97 307 3 (4.33)  2016-02-14
?foreign mario 336 4 (4.25)  2016-02-14
?laak 250 2 (2.50)  2016-02-14
?96 332 3 (4.33)  2016-02-11
?My Favorite Anime 362 2 (4.00)  2016-02-11
?FartKickers™ 1,112 5 (4.20)  2016-02-11
?Anakin makes Orange Goo for his Mommy to save... 459 5 (4.00)  2016-02-09
?good monkey joke 1,131 15 (4.40)  2016-02-08
?FastFucker™ 1,567 10 (4.50)  2016-02-07
?β 336 4 (4.25)  2016-02-06
?MoClew™ 466 5 (4.00)  2016-01-23
?Bob's Burgers - Good TV Show 521 3 (4.67)  2016-01-22
?You Feel Better Formula 592 8 (4.00)  2016-01-20
?RIP David Bowtie™ 534 3 (2.33)  2016-01-14
?95 1,084 13 (4.08)  2016-01-12
?94 499 8 (3.63)  2016-01-12
?93 642 13 (4.08)  2016-01-12
?Dota vs League - My Opinion As A 6K MMR Dota ... 615 13 (3.38)  2016-01-11
?My Best DOTA Frags: I'm WAY better than... 736 11 (3.45)  2016-01-10
?How I feel about the new Star Trek film 356 4 (3.25)  2016-01-09
?There Were Hot Dogs In™ 253 3 (3.00)  2016-01-09
?So Powerful™ 374 4 (4.50)  2016-01-06
?BEH™ 596 5 (4.80)  2016-01-06
?Relaxing Meditation from Hembonox™ Pyrami... 431 7 (4.57)  2016-01-05
?The new squareGriller from Hembonox™ 661 4 (4.75)  2016-01-04
?Heroes In A Half Shell™ 366 4 (4.50)  2016-01-04
?Pac-Man GoodSong 2,366 26 (4.12)  2016-01-03
?Good Clown 1,294 21 (4.14)  2016-01-03
?Counts Bee™ 312 4 (3.50)  2016-01-02
?LeBart™ 1,681 25 (4.44)  2016-01-02
?That Doesn't Mean Anything To Me 326 5 (3.60)  2015-12-31
?Alright Jay Ar™ 1,450 19 (4.05)  2015-12-29
?New Mortal Kombat II 315 6 (3.33)  2015-12-02
?in about you I know 268 4 (4.25)  2015-12-01
?Sex with pigs 664 4 (3.75)  2015-11-28
?Beanlers III: At The End of The Rope 921 15 (3.80)  2015-11-11
?New Mortal Kombat 1,500 31 (4.32)  2015-11-11
?Glarben's Bed 418 6 (3.67)  2015-11-10
?Hoyt 516 8 (4.38)  2015-11-06
?This Is Your Head 299 4 (3.75)  2015-11-05
?Fat Nigger Retard Doesn't Laugh At Funny J... 454 7 (2.43)  2015-11-05
?Thinklerz™ 388 13 (4.38)  2015-11-05
?Burton's Bobbers 2 266 3 (4.33)  2015-10-21
?YOU'RE GONNA LOVE IT™ 1,453 18 (4.11)  2015-10-17
?Naturally Occurring Rock 236 2 (3.50)  2015-10-17
?Gorilla™ Glass™ CornBaller™ 522 5 (4.80)  2015-10-10
?Glargen's Desk 464 4 (4.75)  2015-10-07
?NO MORE BOOKS 5,220 35 (4.57)  2015-09-23
?The Inside of Dana's Brain 883 12 (4.25)  2015-09-19
?A Stern Look II 386 4 (4.00)  2015-09-15
?Spiderman Transforms 595 1 (5.00)  2015-09-13
?Ride's Hangin' Out! 616 6 (4.33)  2015-09-10
?james mushroom 272 5 (3.20)  2015-09-09
?A Stern Look 355 3 (4.33)  2015-09-09
?Good New YTMND 310 5 (3.80)  2015-09-08
?EeeNerd™ 485 5 (4.60)  2015-09-06
?Fallerz™ 345 6 (3.83)  2015-09-05
?Ada 342 5 (2.80)  2015-09-05
?TableFlopperz™ 390 6 (3.83)  2015-09-03
?That Grand Old Tennessee BlackBear 405 11 (3.45)  2015-09-01
?Ache Wuh We Wone 347 3 (4.00)  2015-09-01
?DougSpazzers™ 839 16 (3.75)  2015-08-31
?Σ 307 3 (3.33)  2015-08-29
?clown joke 2 328 4 (4.00)  2015-08-29
?clown funny 414 4 (3.50)  2015-08-29
?Pee-Weesius' Exodus 877 23 (4.30)  2015-08-28
?Grashie Expect 266 4 (4.00)  2015-08-27
?Kruncherz™ 1,564 22 (4.50)  2015-08-22
?Picard is drowning! 1,578 8 (4.50)  2015-08-17
?Data Activates Refreshment Mode™ 795 13 (4.54)  2015-08-17
?Burton's Bobbers 448 5 (3.40)  2015-08-17
?Data's Secret 351 3 (3.33)  2015-08-17
?Π 329 3 (3.00)  2015-08-17
?Œ 326 2 (3.00)  2015-08-16
?œ 338 5 (4.00)  2015-08-14
?PantsFucker™: Born to be Wild 966 11 (4.55)  2015-08-14
?Traversing the Pee-Watmosphere 580 7 (4.29)  2015-08-11
?King Cake: So Delicious 406 5 (3.20)  2015-08-08
?Star Wars Episode 7: Jurassic World 1,038 12 (3.58)  2015-08-07
?Look at the Jews 665 7 (3.86)  2015-08-07
?Chemical Castration Juice 224 2 (2.50)  2015-08-07
?Steph on the Wing 1,090 16 (3.88)  2015-08-04
?Stephanie's Lazy Town Creampie 2,102 20 (3.80)  2015-08-04
?DougShit's Burgers And Blues 1,340 15 (3.73)  2015-08-03
?Dominos Pizza new faster drivers 372 5 (4.20)  2015-07-03
?Koji Kongo Gorilla Temple - New Zelda Song! 819 15 (3.40)  2015-06-30
?In a Cataclysmic Duel 1,788 43 (4.65)  2015-06-27
?Cute Caterpillar that Makes Adorable Honk and Vr... 265 4 (3.25)  2015-06-22
?Todge, This Entire Evening!™ 771 9 (4.56)  2015-06-11
?Pizza Surprise!™ 3,456 36 (4.42)  2015-06-11
?How I feel about the upcoming Star Wars movie 1,267 14 (3.43)  2015-06-10
?flight wolf 869 10 (3.20)  2015-06-07
?Relaxin' With RisuPress! 302 6 (3.50)  2015-06-06
?Ipad's Juicin' Out Once More! 305 3 (1.33)  2015-06-03
?Ipad's Juicin' Out Again! 235 3 (3.00)  2015-06-02
?iPad's Juicin' Out! 292 5 (3.60)  2015-06-02
?MarioFallerz™ 3 1,215 18 (3.89)  2015-05-28
?MarioFallerz™ 2 1,017 18 (4.00)  2015-05-27
?babis 404 4 (3.50)  2015-05-26
?MarioFallerz™ 1,352 24 (3.83)  2015-05-25
?Good Ocarina of Time Opinions 3 426 5 (4.00)  2015-05-25
?Good Ocarina of Time Opinions 914 19 (3.95)  2015-05-23
?Marbunaché Hôl 494 5 (4.00)  2015-04-23
?MOLGERATMND: Link defeats Ganon! 670 5 (4.20)  2015-04-23
?The Mossman Prophecies 625 9 (3.00)  2015-04-08
?Nicer, Friendlier Vietnamese Ants 243 4 (3.50)  2015-04-06
?dark mystery 598 10 (3.50)  2015-04-02
?Pee-Wee Cruncher™ 1,377 13 (4.15)  2015-03-21
?Really Good Song™ 2,262 23 (4.48)  2015-02-18
?92 430 6 (3.83)  2014-12-31
?YogaSharterz™ 488 13 (3.00)  2014-12-06
?Help! 1,626 30 (3.73)  2014-12-02
?GoodBye Fuckies! 1,989 24 (3.42)  2014-11-26
?Gif Fixer Seriez: Nigga Learns a Mario Lesson 5,332 50 (4.56)  2014-11-15
?ZappStupidz™ 3,070 49 (4.43)  2014-11-14
?MurdarMachene Plays Call of Duty 2,617 53 (4.11)  2014-10-08
?MuscleBumblerz 2: DIckEaterz 5,334 21 (3.81)  2014-10-04
?± 2,663 45 (4.20)  2014-10-04
?SMO! AHBKUN VAKOODA BAGOUGHA-KHU... 1,205 23 (3.74)  2014-09-16
?Hanging Out™ 6,100 82 (4.54)  2014-08-16
?Noislers 1,213 32 (3.69)  2014-08-08
?FAGGOT Running 2,494 47 (3.77)  2014-08-05
?ZappaEaterz™ 2,734 39 (3.92)  2014-07-09
?Crash & Fartstein™ 2,061 39 (3.97)  2014-07-05
?Break The Fart™ 1,128 30 (3.40)  2014-07-05
?SmoBop™ 800 19 (3.11)  2014-06-24
?Game of Thrones Head Smash NEDM 1,013 12 (3.33)  2014-06-12
?BoxSlammerz™ 1,898 37 (3.97)  2014-06-11
?NowPizza™ 1,761 31 (3.94)  2014-06-09
?HeadBobbers™ 1,225 25 (3.48)  2014-06-09
?Dancer Indian 574 5 (3.20)  2014-06-01
?AAAAAAAAAAHHHHHHH AHHHHYYYYYAY... 7,879 74 (4.54)  2014-06-01
?OneWayDog™ 5,826 65 (4.46)  2014-05-24
?NotCougherz™ 1,066 24 (3.54)  2014-05-21
?EYYYY™ 1,489 29 (3.62)  2014-05-21
?Waterbone 432 8 (3.13)  2014-05-17
?karrie has no manners (voat 5) 1,465 37 (3.97)  2014-05-08
?Gleaves Through My Window 1,567 27 (3.93)  2014-05-07
? 587 10 (3.70)  2014-04-30
?ArrrYooo™ 953 17 (3.71)  2014-04-29
?Uvalwees™ 482 10 (3.30)  2014-04-28
?De Ganja Herb™ 504 9 (3.56)  2014-04-28
?Moaghhh™ 715 14 (3.36)  2014-04-28
?Hi! This is Dave for Expert Village™ 371 7 (3.00)  2014-04-26
?Umfuld's Havin` a Goof™ 1,998 38 (4.05)  2014-04-26
?BallWHOAH™ 558 15 (3.20)  2014-04-25
?LookitTheBallWHOAH™ 1,046 24 (3.63)  2014-04-25
?Ah™ 2,725 41 (4.15)  2014-04-23
?King Albondigas 429 6 (3.00)  2014-04-16
?Bondigas™ 489 9 (3.33)  2014-04-16
?Ingalbondigas™ 370 6 (3.17)  2014-04-16
?ZigZag™ Inflaterz©™ 466 8 (3.50)  2014-04-13
?I'M IN HERE™ 3,187 40 (3.85)  2014-04-13
?Zavoz DeGole 544 7 (3.43)  2014-04-13
?ThoutWit™ 489 10 (3.50)  2014-04-11
?DuhSuperpower™ 561 11 (3.27)  2014-04-06
?I Really Want The Superpower 1,111 21 (3.57)  2014-04-06
?Sounds of Then 492 8 (3.50)  2014-04-06
?Jigglers™ 1,385 29 (3.90)  2014-04-06
?FanKickers™ 433 13 (2.85)  2014-03-24
?ZELDA™ 1,534 30 (3.60)  2014-03-15
? 738 16 (4.00)  2014-02-14
?Good Beard Song 579 10 (3.50)  2014-02-06
?Tumblers™ 1,635 29 (3.90)  2014-01-26
?° 1,412 29 (3.52)  2014-01-24
?Time to make the... 1,814 27 (3.30)  2014-01-16
?Stir Tricks: Voyages 926 23 (3.26)  2014-01-15
?Start Tracks: The Next! 1,567 20 (3.75)  2013-12-28
?Musp 498 11 (3.55)  2013-12-08
?Ploppers™ 1,022 21 (3.67)  2013-12-07
?Memorie 385 11 (3.55)  2013-11-27
?Starp 1,475 34 (3.85)  2013-11-20
?Wenyurwerl™ 1,939 45 (4.07)  2013-11-14
?91 506 10 (3.50)  2013-11-11
?Kid China vs Baby China 410 6 (3.00)  2013-11-11
?¬ 3,253 32 (3.69)  2013-11-06
?Baby China™ 406 4 (3.25)  2013-10-18
?Kid China™ 374 3 (3.67)  2013-10-18
?oct 589 9 (3.56)  2013-05-16
?BuntEaterz™ 1,200 28 (3.79)  2013-05-11
?BuntFloaterz™ 1,127 22 (3.55)  2013-05-11
?Almost 3,587 39 (4.10)  2013-05-06
?Captain Pikerd™ & K'yoo™ ... 804 7 (4.00)  2013-05-06
?SpaceLouderz 1,141 28 (3.54)  2013-05-02
?Bruce Willis Reminisces On The Big Dinner He Had... 1,129 18 (3.50)  2013-04-30
?trekkPusherz™ 462 5 (3.20)  2013-04-26
?Autism Flyers 966 9 (3.78)  2013-04-20
?Horse Wessel Always Lied 560 5 (3.00)  2013-04-20
?goril 553 14 (3.43)  2013-04-20
?fighter indian 546 8 (3.75)  2013-04-20
?Emergence. 425 4 (2.75)  2013-04-20
?MorphGo™ The Movie™ 1,450 33 (3.70)  2013-04-18
?goodLaughs 5,618 83 (4.37)  2013-04-15
?Nowdeesiwetz 2,620 36 (4.06)  2013-04-09
?Star War Relaxation 923 23 (3.83)  2013-04-06
?GoodGrammar™ 751 10 (3.60)  2013-04-05
?Munklers™ 6 840 5 (3.00)  2013-04-05
?Oongwas™ 819 11 (3.73)  2013-04-04
?Munklers™ 5 470 3 (2.67)  2013-04-04
?Munklers™ 4 425 5 (2.20)  2013-04-04
?Munklers™ 3 519 9 (3.11)  2013-04-04
?Munklers™ 2 682 9 (3.33)  2013-04-04
?Munklers™ 3,961 60 (4.05)  2013-04-03
?The 49ers Football Lose The SuperBowl Football T... 1,716 38 (3.71)  2013-04-02
?I Love The 49ers Football 581 4 (3.50)  2013-04-01
?RapidHoganz™ 3,246 68 (4.19)  2013-03-29
?My Favorite Start Track 593 4 (3.75)  2013-03-28
?How I feel about YTMND getting shut down 658 13 (3.62)  2013-03-24
?Max Contest Winner! 3,625 48 (4.29)  2013-03-16
?GayFight™ 905 18 (3.28)  2013-03-08
?Funny Let's Play 547 6 (3.67)  2013-02-19
?Hi! I'm Chef Randall™ 658 8 (3.50)  2013-02-18
?Heathcliff™ 1,294 33 (3.55)  2013-02-10
?What comes to mind? 1,113 22 (3.45)  2013-02-06
?The Arrival 684 11 (3.36)  2013-01-26
?DroidFallerz™ 545 12 (3.50)  2013-01-26
?Half Life 2 755 14 (3.00)  2013-01-25
?The Flipstonts 818 21 (2.95)  2013-01-24
?Hunt's Tomato Catsup 454 6 (2.33)  2013-01-21
?MunkMunk™ 746 12 (3.33)  2013-01-20
?KuriboKoinklerz™ - The Millennial Edition&cop... 530 6 (3.33)  2013-01-13
?1/2 Lemon Drizzlers 552 9 (2.56)  2013-01-11
?ZoomerFarterz™ 1,529 38 (3.95)  2013-01-09
?Sremooz™ 3,785 69 (4.26)  2013-01-09
?Zoomers™ 2,393 59 (4.15)  2013-01-08
?Happy New Year! 517 5 (3.00)  2013-01-02
?90 1,002 19 (3.53)  2012-12-31
?89 744 13 (3.54)  2012-12-30
?Cinnamon Fills™ 798 4 (3.50)  2012-12-29
?RIP Gerry Anderson 1,077 21 (3.62)  2012-12-28
?Banana Goopers™ 666 8 (2.88)  2012-12-27
?funny british popcorn 1,597 36 (3.47)  2012-12-27
?Bonklerz™ 784 11 (3.82)  2012-12-27
?88 912 15 (3.73)  2012-12-27
?87 2,549 44 (3.80)  2012-12-26
?WorfWine™ 695 8 (3.63)  2012-12-23
?Shit WorfWine™ site that MurdarMachene Ha... 632 5 (4.20)  2012-12-23
?End. 612 7 (3.00)  2012-12-20
?BigFlyer™ GoFarters©™ 3,638 53 (4.02)  2012-12-20
?86 349 3 (3.00)  2012-12-20
?85 942 13 (3.38)  2012-12-18
?84 496 5 (3.40)  2012-12-16
?.birT 5,180 53 (3.92)  2012-12-14
?Trib. 3,990 48 (4.00)  2012-12-11
?SpockJuicerz™ 2,061 42 (3.67)  2012-12-08
?83 1,789 39 (3.69)  2012-11-30
?PumpkinLaugherz™ 1,588 28 (3.61)  2012-11-28
?Beanlers II - The Reckoning 1,288 28 (3.68)  2012-11-25
?Bleeeeaaaagghhh™ 2,328 38 (3.87)  2012-11-19
?82 1,098 18 (3.61)  2012-11-11
?Hogan Conspiracy 2,210 56 (3.98)  2012-10-27
?Robots In™ 2,150 39 (3.95)  2012-10-18
?Garlic Nose Can Kill You 916 7 (4.14)  2012-10-18
?Cod, Shrimp, Rice & Brownies 1,069 8 (3.75)  2012-10-18
?Why I don't like affirmative action 885 7 (3.43)  2012-10-15
?81 802 5 (4.20)  2012-10-13
?Flopperz™ 3,540 61 (4.03)  2012-10-04
?It's a Miracle Irene 1,017 14 (3.43)  2012-10-02
?Having my feet cleaned on someone's water... 620 5 (3.60)  2012-09-25
?SlammHuckers™ 3,415 36 (3.58)  2012-09-20
?Geriatromorphs 5,219 66 (4.26)  2012-09-14
?Your Son's Behavior is Shocking 2,816 46 (3.70)  2012-09-09
?Gays™ 1,103 17 (3.29)  2012-09-08
?Gaze Into™ 739 11 (3.55)  2012-09-08
?FatYogurt™ 788 13 (4.23)  2012-09-01
?positive game 518 5 (3.80)  2012-08-27
?fun game 551 11 (3.36)  2012-08-27
?good game 602 9 (3.44)  2012-08-27
?Tybalt Rapscallions' Funny Choir 1,814 38 (3.84)  2012-08-24
?For Lunchlaham™ 707 8 (3.75)  2012-08-23
?For Lunch™ 905 12 (3.83)  2012-08-23
?Phonerz™ 1,994 46 (3.83)  2012-08-11
?RockenFartzers™ 784 22 (3.82)  2012-08-10
?SodaManz™ Part 3 - Sneakerz 2,191 45 (4.09)  2012-08-10
?SodaManz™ Part 2 - Walkerz 1,069 27 (3.59)  2012-08-10
?SodaManz™ Part 1 - Dancerz 1,782 41 (3.88)  2012-08-10
?Forkrago 977 10 (3.70)  2012-08-06
?Um "Fulled" Does like the tray - Part 1 2,932 44 (3.64)  2012-07-29
?I Kent Believe™ 1,671 36 (3.64)  2012-07-23
?Door Lookers™ 2,761 50 (3.78)  2012-07-17
?Kooltie Izz™ Redux 798 18 (3.72)  2012-07-17
?I love Neil Hamburger 1,019 18 (3.11)  2012-07-12
?Good MurderManchy Screenshare 1,019 19 (3.68)  2012-07-10
?Toilet Duck Attacks™ 5,715 84 (4.01)  2012-06-25
?ShoddaBall™ 969 27 (3.59)  2012-06-05
?Fabulous Givaway 628 5 (3.20)  2012-06-03
?For Your Rides© 6,255 108 (4.04)  2012-05-27
?╱¤╲ 1,007 9 (3.00)  2012-05-20
?80 924 8 (3.88)  2012-05-01
?Jerm Sendfel 1,449 38 (3.82)  2012-04-20
?actually I find the frozen image hilarious 674 6 (3.50)  2012-04-13
?P Writer™ 1,170 28 (3.89)  2012-04-12
?The P is very important 903 11 (3.82)  2012-04-12
?Got your decals? 651 8 (3.75)  2012-04-12
?BikePumpers™ 1,337 19 (3.89)  2012-04-11
?Zeebo™ 2,345 50 (3.98)  2012-04-11
?OvalHorse™ 782 16 (3.88)  2012-04-11
?Popcorn Dumper™ 1,627 35 (3.89)  2012-04-09
?Going Up™ 5,835 84 (4.23)  2012-04-08
?Anybody Home™ 5,916 66 (4.12)  2012-04-08
?What do you have to say? 733 11 (3.45)  2012-04-07
?ufo indian 750 15 (3.60)  2012-04-07
?funny sparta 417 10 (3.30)  2012-04-04
?GLOOSEBUMPS™ 1,329 25 (3.84)  2012-04-04
?I am Pig Man 651 8 (3.63)  2012-03-28
?OhNo!™ 3 536 7 (3.29)  2012-03-27
?OhNo!™ 2 495 6 (3.00)  2012-03-26
?Thanks Wedge™ 625 5 (4.20)  2012-03-24
?Do Not Eat™ 2 387 6 (2.33)  2012-03-24
?Do Not Eat™ 883 10 (3.90)  2012-03-24
?OhNo!™ 1,418 24 (3.29)  2012-03-20
?Gorilla Munch 647 8 (3.38)  2012-03-03
?Ñ 1,519 51 (3.67)  2012-02-24
?good comment joke 822 8 (4.00)  2012-02-13
?good nigger joke 3,392 30 (4.00)  2012-02-12
?good diabetes joke 4,586 47 (3.57)  2012-02-12
?OopsSmasherz™ 866 17 (4.18)  2012-01-19
?mail 603 7 (3.86)  2012-01-10
?funny larrybean 1,100 10 (4.10)  2012-01-06
?funny beanlarry 2,793 13 (3.92)  2012-01-06
?The Simple Songs 668 7 (4.00)  2012-01-01
?Crispy Corn Taste™ 1,233 21 (3.76)  2011-12-31
?bosco drinks 1,396 20 (3.85)  2011-12-31
?Bosco drinks his BOSCO™ 6,495 80 (4.29)  2011-12-31
?Clairvoyant Yarn: Good Book 1,098 15 (3.73)  2011-12-31
?SpockFarterz™ III - The Search for Baloney 2,426 56 (3.75)  2011-12-26
?SpockFarterz™ II - The Wrath of Shit 1,696 35 (3.80)  2011-12-26
?SpockFarterz™ I - The Motion Farter 1,725 35 (3.77)  2011-12-26
?KIM JONG IL IS DEAD 1,154 13 (3.77)  2011-12-18
?Squarshed™ or Spoiled™ 770 8 (3.63)  2011-12-10
?PeeWee's™ WholeWheet™ Pe... 4,621 59 (3.63)  2011-12-09
?Till-Th'ei Ewze™ 1,973 32 (3.66)  2011-12-08
?Yowlee 578 12 (3.42)  2011-12-08
?FatJesusBouncerz™ 837 12 (3.42)  2011-12-02
?babl 1,106 3 (3.67)  2011-12-02
?ranny PUFFLE™ 1,919 44 (3.84)  2011-11-30
?Enjoy. 10,657 121 (4.09)  2011-11-29
?Aint Gonna Fart™ 5,997 72 (3.65)  2011-11-09
?R.I.P. Bill Grates 903 6 (4.00)  2011-10-06
?Bananano Wajippy™ 798 3 (5.00)  2011-10-04
?It's Uncle 638 8 (3.25)  2011-09-28
?Mister Duklaham's Quizzical Quandry 822 9 (3.67)  2011-09-10
?Mister Duklaham's Delightful DuklaDance 953 15 (3.53)  2011-09-10
?OdieWife™ Get The Children! 874 12 (3.50)  2011-08-24
?Everything Will Be Okay 1,175 25 (3.40)  2011-08-12
?Point 1,184 4 (3.75)  2011-07-15
?79 1,718 27 (3.70)  2011-06-29
?HE 1,294 10 (3.70)  2011-04-26
?* 996 8 (4.00)  2011-04-16
?Brule. 1,271 7 (3.86)  2011-04-05
?Mario 1,154 13 (3.69)  2011-03-05
?╱¤╲ 1,431 14 (2.43)  2011-01-26
?good ytmnd 1,635 12 (3.58)  2011-01-21
?Political Cartoon 1,319 14 (3.57)  2011-01-12
?12/27/2010 1,168 12 (3.17)  2010-12-27
?BallyKoinklers® - Part 9 903 8 (3.63)  2010-11-27
?BallyKoinklers® - Part 8 916 11 (3.55)  2010-11-26
?BallyKoinklers® - Part 7 965 8 (3.50)  2010-11-26
?BallyKoinklers® - Part 6 1,065 15 (4.07)  2010-11-26
?BallyKoinklers® - Part 5 958 9 (4.11)  2010-11-26
?BallyKoinklers® - Part 4 1,224 7 (4.29)  2010-11-26
?BallyKoinklers® - Part 3 1,481 26 (3.88)  2010-11-26
?BallyKoinklers® - Part 2 2,014 50 (3.96)  2010-11-26
?BallyKoinklers® - Part 1 1,327 21 (3.71)  2010-11-25
?HAPY HOLDAY 989 7 (3.00)  2010-11-24
?Morp 473 4 (3.50)  2010-11-19
?The Pig Man 1,868 23 (3.96)  2010-09-23
?Perf 897 7 (3.43)  2010-08-31
?your body is a present 1,178 8 (3.50)  2010-08-21
?Avatar 2,539 12 (4.08)  2010-07-08
?EEEEEHHHAAAAAAAAAAAAAAAAAAEE... 4,638 60 (4.05)  2010-07-07
?78 1,084 12 (3.83)  2010-07-07
?MonkeyZoomerz™ 2,756 41 (3.85)  2010-07-03
?EEEEEMPALfolly™ 1,538 22 (3.82)  2010-07-03
?Mart™ & Me™ - Part 1 2,185 53 (4.02)  2010-06-23
?TairyDancerz™ TairyCrasherz© BadSy... 683 17 (4.00)  2010-06-10
?Funny Dead Terrorist Joke 1,259 10 (3.30)  2010-05-19
?DoorHitterz© 1,838 42 (3.74)  2010-05-19
?77 1,370 17 (3.88)  2010-05-17
?Mussolini Interrupterz© 828 10 (3.60)  2010-05-16
?Horn 4,135 82 (4.02)  2010-04-24
?Starcraft 2: New Unit! 980 14 (3.50)  2010-03-25
?Reallydont 640 20 (3.80)  2010-02-25
?Justdontlikeem 1,199 27 (3.89)  2010-02-25
?Æ 1,278 23 (3.48)  2010-02-21
?Command & Conquer 4: Tiberian Twilight! 1,647 17 (3.94)  2010-02-12
?AnnDancerz© 3 1,369 13 (3.31)  2010-02-08
?Battleships Forgetter™ 1,430 19 (3.79)  2010-02-06
?Funny Arnold Schwarzenegger "Avatar&quo... 4,346 24 (3.58)  2010-01-29
?bone 1,822 25 (3.84)  2010-01-26
?Imagination 887 12 (3.58)  2010-01-26
?Look at that Correlian Corvette 1,211 12 (3.58)  2010-01-25
?Avatar - Best Movie Ever 3,637 25 (3.76)  2010-01-24
?Haiti 31,515 349 (4.28)  2010-01-22
?My Puppis 824 23 (3.65)  2010-01-19
?They're with Jesus in a Fig 899 10 (3.50)  2010-01-19
?OH JESUS! OH GOD OH- OH JESUS GOD OH ... 12,163 170 (4.26)  2010-01-17
?TFTISMFYODBMITTISSLTMCTHSTITTWSWW... 3,040 79 (3.86)  2010-01-17
?DUAH 2,168 57 (3.81)  2010-01-16
?Beanlaham 3 989 26 (3.85)  2010-01-12
?Beanlaham 2 - BlowTootlerz™ 1,101 23 (3.83)  2010-01-12
?Beanlaham 1,035 19 (3.89)  2010-01-11
?Monkeys are Loose 718 19 (3.68)  2010-01-09
?His High Glorious Honorable Prince Huulabaloo 622 7 (3.29)  2010-01-08
?NipplejetsAhh 810 19 (3.79)  2010-01-06
?shah 3,222 61 (3.85)  2010-01-05
?Star Trek 1,216 24 (3.54)  2010-01-05
?-|- The Interlude -|- 2,740 57 (3.89)  2010-01-03
?Kooltie Izz™ 765 18 (3.06)  2010-01-03
?Who Here Likes Turkey - Part 30 666 10 (3.30)  2010-01-01
?Who Here Likes Turkey - Part 29 544 3 (3.00)  2010-01-01
?Who Here Likes Turkey - Part 28 433 3 (3.00)  2010-01-01
?Who Here Likes Turkey - Part 27 394 7 (4.00)  2010-01-01
?Who Here Likes Turkey - Part 26 469 5 (3.40)  2010-01-01
?Who Here Likes Turkey - Part 25 334 5 (2.40)  2010-01-01
?Who Here Likes Turkey - Part 24 350 4 (2.50)  2010-01-01
?Who Here Likes Turkey - Part 23 390 7 (3.00)  2010-01-01
?Who Here Likes Turkey - Part 22 458 6 (3.00)  2010-01-01
?Who Here Likes Turkey - Part 21 558 4 (2.00)  2010-01-01
?Who Here Likes Turkey - Part 20 368 3 (1.67)  2010-01-01
?Who Here Likes Turkey - Part 19 570 5 (3.40)  2010-01-01
?Who Here Likes Turkey - Part 18 401 8 (3.63)  2010-01-01
?Who Here Likes Turkey - Part 17 873 15 (3.73)  2010-01-01
?Who Here Likes Turkey - Part 16 715 8 (3.88)  2009-12-31
?Who Here Likes Turkey - Part 15 415 3 (2.67)  2009-12-31
?Who Here Likes Turkey - Part 14 300 4 (3.25)  2009-12-31
?Who Here Likes Turkey - Part 13 789 6 (3.17)  2009-12-31
?Who Here Likes Turkey - Part 12 691 7 (3.29)  2009-12-31
?Who Here Likes Turkey - Part 11 358 7 (3.57)  2009-12-31
?Who Here Likes Turkey - Part 10 452 4 (2.50)  2009-12-31
?Who Here Likes Turkey - Part 9 1,215 6 (3.50)  2009-12-31
?Who Here Likes Turkey - Part 8 725 15 (3.67)  2009-12-31
?Who Here Likes Turkey - Part 7 413 3 (3.33)  2009-12-31
?Who Here Likes Turkey - Part 6 557 5 (3.40)  2009-12-31
?Who Here Likes Turkey - Part 5 362 7 (4.14)  2009-12-30
?Who Here Likes Turkey - Part 4 397 6 (3.50)  2009-12-30
?Who Here Likes Turkey - Part 3 431 10 (3.00)  2009-12-30
?Who Here Likes Turkey - Part 2 584 17 (3.82)  2009-12-30
?Who Here Likes Turkey - Part 1 787 17 (3.82)  2009-12-30
?Dunelaham™ 3 663 13 (3.62)  2009-12-30
?Dunelaham™ 2 647 18 (3.61)  2009-12-30
?Dunelaham™ 654 17 (3.65)  2009-12-29
?OUT 959 24 (3.71)  2009-12-29
?Virginity 2 946 19 (3.63)  2009-12-29
?Skief Nam'Naddu Buffraddow 1,073 16 (3.88)  2009-12-28
?Fake Greenscreen Walkerz© 5,156 108 (3.97)  2009-12-27
?Happy Kwanzaa! 832 12 (3.58)  2009-12-26
?russia.jpg 1,541 20 (3.80)  2009-12-23
?Resistance - Fall of Man 1,031 16 (3.94)  2009-12-23
?The Mannister 793 18 (3.83)  2009-12-22
?77 97 110 105 102 101 115 116 32 68 101 115 116... 954 13 (3.38)  2009-12-11
?Piggin` - Part 33 1,016 14 (3.21)  2009-12-09
?Piggin` - Part 32 464 9 (2.67)  2009-12-09
?Piggin` - Part 31 644 10 (3.10)  2009-12-09
?Piggin` - Part 30 431 8 (3.38)  2009-12-09
?Piggin` - Part 29 381 8 (3.50)  2009-12-08
?Piggin` - Part 28 448 8 (3.00)  2009-12-08
?Piggin` - Part 27 433 11 (3.27)  2009-12-08
?Piggin` - Part 26 388 7 (3.57)  2009-12-08
?Piggin` - Part 25 374 8 (3.25)  2009-12-08
?Piggin` - Part 24 727 7 (3.71)  2009-12-08
?Piggin` - Part 23 427 7 (4.00)  2009-12-08
?Piggin` - Part 22 515 6 (4.00)  2009-12-08
?Piggin` - Part 21 447 10 (3.60)  2009-12-07
?Piggin` - Part 20 620 5 (3.00)  2009-12-07
?Piggin` - Part 19 391 6 (3.17)  2009-12-07
?Piggin` - Part 18 351 6 (2.83)  2009-12-07
?Piggin` - Part 17 519 9 (3.89)  2009-12-06
?Piggin` - Part 16 13,468 8 (3.88)  2009-12-06
?Piggin` - Part 15 674 8 (3.00)  2009-12-06
?Piggin` - Part 14 657 4 (3.25)  2009-12-06
?Piggin` - Part 13 368 6 (3.00)  2009-12-06
?Piggin` - Part 12 366 5 (3.20)  2009-12-05
?Piggin` - Part 11 425 6 (3.83)  2009-12-05
?Piggin` - Part 10 470 4 (3.75)  2009-12-03
?Piggin` - Part 9 652 11 (2.64)  2009-12-03
?Piggin` - Part 8 417 9 (3.22)  2009-12-03
?Piggin` - Part 7 559 8 (3.38)  2009-12-03
?Piggin` - Part 6 492 7 (3.29)  2009-12-02
?Piggin` - Part 5 695 12 (2.83)  2009-11-21
?Piggin` - Part 4 471 11 (3.64)  2009-11-21
?Piggin` - Part 3 436 10 (3.30)  2009-11-21
?Piggin` - Part 2 820 10 (3.40)  2009-11-21
?Piggin` - Part 1 2,882 13 (3.15)  2009-11-20
?╱¤╲ 437 11 (3.36)  2009-11-20
?Babylon 5 1,528 26 (3.92)  2009-11-08
?orh 1,157 9 (4.22)  2009-11-02
?Command & Conquer is an overblown pile of ... 2,833 17 (4.00)  2009-10-31
?Munching & Snacking 1,367 20 (4.15)  2009-10-25
?Country and Western Music 910 24 (4.04)  2009-10-25
?101909EE 1,056 12 (3.50)  2009-10-19
?Chosen One! 1,995 45 (4.11)  2009-10-03
?╱¤╲ 526 13 (3.15)  2009-09-14
?╱¤╲ 446 9 (2.78)  2009-09-14
?╱¤╲ 466 9 (3.67)  2009-09-14
?╱¤╲ 650 10 (3.20)  2009-09-14
?╱¤╲ 531 9 (2.78)  2009-09-14
?╱¤╲ 389 6 (3.00)  2009-09-14
?╱¤╲ 340 12 (3.25)  2009-09-13
?╱¤╲ 461 11 (2.73)  2009-09-13
?╱¤╲ 545 9 (3.22)  2009-09-13
?╱¤╲ 460 9 (3.56)  2009-09-13
?╱¤╲ 462 10 (3.50)  2009-09-13
?╱¤╲ 374 8 (3.25)  2009-09-12
?╱¤╲ 576 11 (3.73)  2009-09-12
?Mussolini PufferLaugherz© 825 24 (3.79)  2009-09-08
?OUCHERZ™ 3: The Fartbaloney Chronicles 682 20 (3.60)  2009-08-22
?OUCHERZ™ 2 697 16 (4.00)  2009-08-12
?OUCHERZ™ 652 13 (3.46)  2009-08-12
?AnnDancerz© 2 774 15 (3.73)  2009-08-06
?(nsfw) Here's the Penis© 4,625 98 (4.01)  2009-08-01
?Dodge 'n Shoot© 1,202 11 (4.00)  2009-07-23
?BIG SKRIN TEVEEZTA 3,600 105 (4.26)  2009-07-14
?Final Fantasy 12 for Sony Playstation 4,931 27 (4.19)  2009-07-13
?ScreamScooterz© 876 18 (4.22)  2009-07-13
?DumpySliderz© 2,891 26 (4.00)  2009-07-12
?EVO 1,184 16 (3.56)  2009-07-12
?LickyTastez© 990 32 (4.09)  2009-07-11
?FrogWHOAAAS 8,393 171 (4.35)  2009-07-11
?Dig In 548 11 (3.82)  2009-07-10
?Riteontopuvthudoh 669 19 (3.89)  2009-07-10
?Here Toad Kills a Pokey 1,235 24 (4.17)  2009-07-10
?The End of My Brain 908 17 (4.12)  2009-07-09
?Half Life 2 945 13 (3.85)  2009-07-08
?FatsoEaterz© 565 12 (3.92)  2009-07-08
?The New Apple iSushi© 1,881 21 (3.86)  2009-07-07
?Funny Funny Joke 1,323 42 (4.02)  2009-07-06
?The Stringray Chronicles - Part 1 694 12 (4.17)  2009-07-06
?Sad Missers™ ;_; - Billy Mays Dedication 940 14 (3.64)  2009-06-30
?The Cosmo Mantic Police 1,312 15 (3.93)  2009-06-29
?76 1,021 11 (3.27)  2009-06-29
?Molly© 656 15 (3.67)  2009-06-28
?©zrenwoDredilS ©zremmalSecaF 1,274 25 (4.00)  2009-06-28
?FaceSmasherz© SliderDownerz© 7,692 193 (4.20)  2009-06-27
?Michael Jackson Tribute 2,863 29 (3.28)  2009-06-25
?WalkLearnerz© 1,201 19 (4.00)  2009-06-24
?hmmEUREEKAAA 536 13 (3.62)  2009-06-23
?Lunchlaham 977 16 (4.06)  2009-06-22
?Laigh Crisp Golden Brahn 1,917 45 (4.04)  2009-06-20
?╱¤╲ 1,083 12 (3.83)  2009-06-19
?╱¤╲ 1,114 25 (3.96)  2009-06-12
?Borock H. Obomma PromisedFat© 1,638 31 (4.16)  2009-06-12
?Sad Missers™ ;_; - The Movie 2,147 68 (4.04)  2009-06-11
?╱¤╲ 490 14 (3.36)  2009-06-09
?ToastZapperz© 12,096 269 (4.27)  2009-06-09
?The Sumpsoles 2,214 48 (4.00)  2009-06-02
?Raxisbirdz© 1,129 29 (3.69)  2009-06-02
?Blunderthirds© 1,118 29 (3.86)  2009-06-02
?Care Scruncher 892 13 (3.38)  2009-06-01
?RockEaterz© 715 17 (3.82)  2009-06-01
?©alpotcaeY 644 6 (3.67)  2009-06-01
?©zrenruBtliT 385 4 (4.00)  2009-06-01
?©zrehsarCannoG 343 7 (3.43)  2009-06-01
?GonnaCrasherz© 1,298 46 (3.65)  2009-05-31
?TiltBurnerz© 715 17 (3.94)  2009-05-29
?Yeactopla© 1,386 31 (3.97)  2009-05-29
?75 978 12 (4.17)  2009-05-28
?UUUUUUUUUHHAAAAAAAAAGH 1,250 28 (4.25)  2009-05-22
?Jorge Munchkinson 774 13 (4.15)  2009-05-21
?AAAAAUUUUUUUUUUUUUGH 965 29 (4.10)  2009-05-21
?BattleGuppers© 9,118 206 (4.34)  2009-05-17
?╱¤╲ 1,848 16 (3.44)  2009-05-15
?PREZ 3,037 13 (3.54)  2009-05-15
?funny stalin joke 2,699 10 (2.80)  2009-05-14
?I-9 570 7 (3.57)  2009-05-11
?I-13 661 6 (4.00)  2009-05-10
?I-33 724 8 (4.00)  2009-05-08
?I-57 612 4 (4.25)  2009-05-08
?I-79 763 12 (3.67)  2009-05-01
?HulkZonerz© 1,136 18 (4.06)  2009-04-26
?SHUNBIKE© 894 12 (4.17)  2009-04-22
?SBULLO SVITATA 1,137 21 (4.43)  2009-04-20
?<+> 1,277 18 (4.17)  2009-04-20
?SodaSlammerz© 1,946 34 (4.18)  2009-04-18
?Sad Missers™ Season 2 - Ep. 4 ;_; 1,499 23 (4.22)  2009-04-16
?AnnDancerz© 2,169 64 (4.11)  2009-04-12
?Ÿ 911 12 (3.67)  2009-04-12
?74 1,233 20 (3.80)  2009-04-08
?All Atta© 806 13 (3.38)  2009-04-07
?Mr. Herman© 2,326 33 (4.09)  2009-04-07
?╱¤╲ 1,001 13 (3.62)  2009-04-07
?SlideNeederz© 2,377 61 (4.23)  2009-04-06
?funny meat ball sub with sprite joke 1,644 27 (3.37)  2009-04-04
?Command & Conquer: Red Alert 3! 1,821 24 (4.08)  2009-03-20
?British Moon Man rapes your dog so hard it dies. 1,722 20 (3.60)  2009-03-13
?Veeerry Big Toy® 1,207 40 (4.10)  2009-03-07
?MunkeyWunz© - Part 13 703 13 (4.00)  2009-03-07
?MunkeyWunz© - Part 12 2,124 17 (3.94)  2009-03-07
?MunkeyWunz© - Part 11 892 14 (3.57)  2009-03-07
?MunkeyWunz© - Part 10 708 11 (4.00)  2009-03-07
?MunkeyWunz© - Part 9 2,822 8 (3.88)  2009-03-06
?MunkeyWunz© - Part 8 739 9 (4.00)  2009-03-06
?MunkeyWunz© - Part 7 834 9 (3.67)  2009-03-06
?MunkeyWunz© - Part 6 807 9 (4.00)  2009-03-05
?MunkeyWunz© - Part 5 851 11 (4.00)  2009-03-05
?MunkeyWunz© - Part 4 1,027 13 (3.92)  2009-03-05
?MunkeyWunz© - Part 3 1,731 14 (3.86)  2009-03-04
?MunkeyWunz© - Part 2 727 10 (4.10)  2009-03-04
?MunkeyWunz© - Part 1 557 11 (3.55)  2009-03-04
?Thwodder Feltguddon Maifete 3,124 86 (3.95)  2009-02-24
?Funny Hitler Insane Joke 3,748 22 (4.00)  2009-02-16
?The Most ||||||||||||||||||||||||||||| Sacrifice 827 10 (3.50)  2009-02-08
?73 1,691 28 (4.11)  2009-02-08
?Drop it right into the Frying Pan© 1,248 28 (4.14)  2009-02-07
?Watch how it cuts Cheese© 1,574 38 (4.03)  2009-02-07
?FredSwimmerz® 1,289 25 (4.20)  2009-02-07
?Is that a Job?© 928 17 (4.00)  2009-02-07
?The Most Delightful Sacrifice 1,222 21 (4.05)  2009-02-04
?72 877 5 (3.80)  2009-02-02
?Hay Low 3 1,467 10 (4.10)  2009-01-30
?This is the Time of the Revolution 1,167 15 (3.87)  2009-01-29
?monkey stirs up a nice pot of tomato soup 662 10 (3.40)  2009-01-27
?╱¤╲ 593 6 (3.17)  2009-01-25
?71 941 14 (3.79)  2009-01-18
?Hunch Hoagie© - Duel of the Size Burgerz&c... 1,196 26 (4.27)  2009-01-17
?Yah add the FAGGOT 1,762 17 (4.24)  2009-01-14
?Your stupid Minds© 807 33 (4.09)  2009-01-13
?Yah add the Pickle© 2,870 86 (4.09)  2009-01-13
?prof of apolo hoax consprsy govermnt 1,388 19 (3.42)  2009-01-13
?Twilight is my favorite movie. 4,309 27 (3.56)  2009-01-11
?+ 407 9 (2.78)  2009-01-11
?Dr. T'Cocleas` 1,451 19 (3.74)  2009-01-08
?The Lost Artifact of The Kermins 869 14 (3.07)  2008-12-31
?Wyatt Dingleberry Finrows' Final Photograp... 3,479 26 (4.08)  2008-12-29
?Star Wars: Deep Space 9 1,090 26 (2.73)  2008-12-28
?70 1,297 14 (3.50)  2008-12-24
?69 2,739 7 (3.00)  2008-12-23
?¶- 431 8 (3.25)  2008-12-23
? 1,280 29 (3.86)  2008-12-19
?fishsif 660 6 (2.83)  2008-12-19
?hsif 422 11 (3.36)  2008-12-19
?fish 1,070 20 (3.85)  2008-12-19
?Panorama Stinko© - Epilogue 1,263 18 (3.89)  2008-12-18
?Panorama Stinko© - AYAYAYYYYYYYYY 1,566 37 (3.84)  2008-12-18
?Panorama Stinko© - EmSadimia© 1,189 14 (3.71)  2008-12-18
?Panorama Stinko© - PlayioYestavoBiendo&co... 1,253 22 (3.91)  2008-12-18
?Panorama Stinko© - DeQuiaPuskar© 1,001 30 (3.87)  2008-12-18
?Panorama Stinko© - NOOOOOOOOOOOOO... 1,184 29 (3.90)  2008-12-18
?Panorama Stinko© - UmaStoLaGay© 839 16 (3.38)  2008-12-17
?Panorama Stinko© - Prologue 478 13 (3.62)  2008-12-17
?Sad Missers™ Season 2 - Ep. 3 ;_; 793 21 (3.95)  2008-12-17
?68 843 11 (3.91)  2008-12-17
?67 1,034 20 (3.85)  2008-12-16
?Wyatt Dingleberry Finrows 1,066 17 (3.76)  2008-12-16
?Eggwave© - Oh! Added Fat© 1,403 50 (3.84)  2008-12-14
?Ham and cheese?© 1,749 33 (4.03)  2008-12-14
?MmmHmm© 1,721 45 (3.89)  2008-12-14
?~/(Change)\~/@\~/(The)\~/@\~/(Formality)\~ 1,346 29 (3.86)  2008-12-14
?66 1,383 7 (3.86)  2008-12-13
?Star Wars: The Clone Wars 1,160 7 (2.71)  2008-12-06
?<^> 611 18 (3.56)  2008-12-03
?Look at dat Joof© 11,016 257 (4.15)  2008-11-24
?SpishlyBAA 914 26 (3.69)  2008-11-22
?STAR WARS 713 18 (3.33)  2008-11-19
?YEEEEEEEAAAAAA 6,806 191 (3.95)  2008-11-16
?TYBALT RAPSCALLIONS© HYPERSPEE... 704 34 (3.76)  2008-11-14
?Tybalt Rapscallions' Big Silly Slipper Dance 2,526 41 (3.71)  2008-11-07
?heh 714 12 (4.00)  2008-11-01
?SCARY YTMND 1,052 8 (3.50)  2008-10-30
?Happy Oxi Day! 700 9 (3.78)  2008-10-28
?funny ytmnd 557 17 (3.12)  2008-10-24
?Cold Glass: Leloust of the Rebullion! 953 11 (3.27)  2008-10-21
?SHAMPOOMARIOTMND: Shampoo Mario defeats... 810 17 (3.41)  2008-10-18
?SHAMPOOMARIOTMND 842 19 (3.58)  2008-10-18
?65 2,307 42 (3.81)  2008-10-13
?64 988 20 (3.85)  2008-10-13
?63 801 10 (3.60)  2008-10-12
?╱¤╲ 572 8 (3.13)  2008-10-12
?62.1 627 16 (3.94)  2008-10-08
?62 850 10 (3.90)  2008-10-06
?61 1,112 15 (3.73)  2008-10-06
?60 1,151 11 (3.36)  2008-10-05
?59 1,486 13 (3.62)  2008-10-05
?BWEEEEEEE 951 14 (3.64)  2008-09-28
?Eggwave© - Imply Shake your Eggs and Pla... 941 21 (3.43)  2008-09-26
?Eggwave© - Uh Oh!© 1,158 28 (3.61)  2008-09-26
?╱¤╲ 750 15 (3.60)  2008-09-25
?funny fascist jokes 4,893 13 (2.77)  2008-09-13
?LUHLUHLUHLUHLAAAAAAAAHHH 977 23 (3.83)  2008-09-12
?Spinal Fantasty XIII for the Sony PlayGame 962 24 (3.17)  2008-09-11
?58 1,089 10 (3.20)  2008-08-27
?57 8,209 11 (3.82)  2008-08-27
?56 2,144 25 (3.72)  2008-08-26
?Tybalt Rapscallions 1,143 13 (3.31)  2008-08-26
?Funny YTMND Stephanie Joke 1,659 24 (2.92)  2008-08-22
?Ð 774 8 (3.13)  2008-08-21
?drjdtjd 441 6 (2.00)  2008-08-20
?Just for you Umfuld. <3 1,599 27 (3.70)  2008-08-18
?BabyBattlerz© 1,091 22 (3.82)  2008-08-18
?EEEEEEEEEEEEEEEEEAAAAAAAAAAAA... 445 3 (3.33)  2008-08-18
?Sad Missers™ Season 2 - Ep. 2 ;_; 825 17 (3.94)  2008-08-17
?HHHHHAAAAAAAAAAAAAAAAAAAEEEE... 1,463 26 (3.77)  2008-08-17
?EEEEEEEEEEEEEEEEEAAAAAAAAAAAA... 1,456 38 (3.84)  2008-08-17
?Inthabakuvaleg 1,632 56 (3.91)  2008-08-15
?EPIC MISSERS© 8D 806 15 (3.53)  2008-08-11
?{@@} 964 8 (2.75)  2008-08-10
?Sad Missers™ Season 2 - Ep. 1 ;_; 3,178 21 (4.05)  2008-08-07
?55 900 6 (3.00)  2008-08-07
?Cornelius HunkleBunkle™ 1,034 18 (3.83)  2008-08-01
?Funny Lazy Town Joke 3,141 17 (3.18)  2008-07-29
?¡ 1,143 15 (3.80)  2008-07-27
?54 1,625 13 (3.92)  2008-07-26
?® 736 19 (4.00)  2008-07-23
? 10,820 259 (4.07)  2008-07-21
?[}-{] 7,578 221 (3.98)  2008-07-13
?Teef Am No Doog Tlef Retaw Eht 1,199 28 (3.96)  2008-07-11
?The Water Felt Good on Ma Feet® 2,489 45 (4.00)  2008-07-11
?RogerSlidez® 1,260 37 (4.08)  2008-07-11
?SCARY SHAKERZ© 1,127 17 (3.88)  2008-07-10
?Probublay© 1,091 23 (3.83)  2008-07-10
?SuspenserWurmz© 616 14 (3.50)  2008-07-10
?Mole Stationz© - The Aftershock 1,721 31 (4.00)  2008-07-09
?Mole Stationz© - Epilogue 1,279 42 (4.05)  2008-07-09
?Mole Stationz© - The Day We Spilled the Pai... 3,582 60 (4.03)  2008-07-09
?Mole Stationz© - PaintSpillerz© 1,750 66 (4.14)  2008-07-09
?Mole Stationz© - GetchaCleanedUp© 1,454 33 (4.03)  2008-07-09
?Mole Stationz© - TakeYerShirtOff© 5,205 128 (4.02)  2008-07-09
?Mole Stationz© - SawerManz© 762 28 (4.04)  2008-07-09
?Mole Stationz© - Prologue 859 18 (3.56)  2008-07-09
?53 1,104 10 (3.60)  2008-07-07
?Sockie Sez™ Intermission 2,838 32 (3.81)  2008-07-05
?MDCCLXXVI 1,418 10 (3.60)  2008-07-04
?FallerManz© 1,738 53 (3.94)  2008-07-03
?Carlton Kart 64! 1,155 25 (3.24)  2008-07-01
?Baron Von Duklaham 3,570 19 (3.89)  2008-07-01
?His jokes lives on... 1,206 22 (3.14)  2008-06-23
?52 1,250 16 (3.56)  2008-06-18
?M.NIGHTSHYAMALANTMND: The Picard Song 1,818 24 (3.83)  2008-06-12
?(nsfw) Harry Potter For Kidz© 1,216 25 (3.36)  2008-06-11
?51 1,096 14 (3.14)  2008-06-07
?beeeeeeeeeeeeeeeeeeeeeeeeez 720 11 (3.09)  2008-06-01
?50 651 5 (2.80)  2008-06-01
?King Zog of Albania 3,328 32 (3.44)  2008-05-24
?×¤× 1,178 41 (3.54)  2008-05-12
?Fargoat Paowlend 762 29 (3.83)  2008-05-08
?Sockie Sez™ 15 - Victory in Europe™ D... 3,560 32 (3.88)  2008-05-07
?0 910 10 (3.60)  2008-05-06
?MC Duklaham 630 9 (4.00)  2008-05-05
?Picard asks Mister Duklaham for the report 1,240 16 (3.88)  2008-05-05
?8/2/2006 1,272 27 (3.89)  2008-04-27
?Funny X-COM Joke 903 14 (3.64)  2008-04-27
?KOENTMND: Billy V. Koensby 1,396 17 (4.00)  2008-04-27
?/~/¤\~\ 729 14 (3.57)  2008-04-27
?╱¤╲ 1,037 44 (3.82)  2008-04-25
?49 721 11 (4.09)  2008-04-22
?48 1,082 18 (4.17)  2008-04-22
?» 588 16 (4.19)  2008-04-22
?« 802 12 (3.92)  2008-04-22
?Here Comes© Ann© 3,711 52 (4.04)  2008-04-19
?47 1,048 15 (3.73)  2008-04-15
?46 1,470 49 (4.02)  2008-04-15
?45 1,092 13 (3.62)  2008-04-15
?NES Megaman selects a fad 1,627 16 (3.38)  2008-04-13
?╱¤╲ 870 14 (3.86)  2008-04-13
?44 1,219 15 (3.80)  2008-04-12
?Masters of Staplers 2,752 19 (3.95)  2008-04-12
?Masters of Mario 1,207 19 (3.63)  2008-04-11
?Sockie Sez™ 14 752 15 (3.93)  2008-04-11
?Kacen's Not-So-Last YTMND 782 15 (3.53)  2008-04-02
?Kacen's Last YTMND 1,105 28 (3.93)  2008-04-01
?Kacen's Second-to-Last YTMND 882 25 (4.00)  2008-04-01
?43 1,174 30 (3.87)  2008-04-01
?42 2,464 59 (3.97)  2008-04-01
?Mister Duklaham's Memoirs Part 1 1,414 19 (4.05)  2008-03-31
?41 1,063 11 (3.73)  2008-03-24
?40 1,462 12 (3.92)  2008-03-23
?39 1,406 16 (4.13)  2008-03-19
?38 1,027 13 (4.08)  2008-03-17
?Looney Tunes! 1,041 18 (3.44)  2008-03-11
?╱¤╲ 776 14 (3.29)  2008-03-01
?Link's Deliverance DX For Kidz© 870 22 (3.82)  2008-02-29
?37 1,261 11 (3.36)  2008-02-29
?36 1,185 11 (3.91)  2008-02-29
?Mor Chokklit© 567 20 (3.65)  2008-02-28
? 505 13 (3.69)  2008-02-28
?Joke© 923 23 (3.91)  2008-02-26
?35 1,116 16 (3.75)  2008-02-26
?34 1,561 24 (3.71)  2008-02-25
?33 938 10 (3.40)  2008-02-24
?32 1,057 18 (3.61)  2008-02-24
?0BBY Conspiracy Files: Alderaan Exploded 1,190 22 (3.32)  2008-02-23
?31 2,939 29 (3.86)  2008-02-18
?Eden Cheaze 1,042 31 (3.74)  2008-02-17
?¾ 1,946 34 (3.94)  2008-02-17
?Sockie Sez™ 13: Mister Sockiez™ Neigh... 1,068 24 (3.71)  2008-02-11
?30 950 7 (2.29)  2008-02-11
?29 883 7 (2.71)  2008-02-11
?28 994 6 (2.83)  2008-02-11
?27 854 7 (2.71)  2008-02-11
?42 45 57 41 52 45 20 4f 46 20 41 4e 55 4e 4e 41 4... 802 5 (2.00)  2008-02-09
?╱¤╲ 1,125 21 (4.00)  2008-02-07
?(nsfw) Oops! PigFell™ 1,708 22 (3.86)  2008-02-03
?MC Mussolini 2,456 27 (4.00)  2008-02-02
?~~~~~~~~~ 711 11 (3.73)  2008-02-02
?Sockie Sez™ 12 848 15 (4.13)  2008-01-30
?Mister Duklaham 2 886 14 (3.71)  2008-01-28
?The Snouters 948 30 (3.53)  2008-01-23
?26 1,308 25 (3.84)  2008-01-22
?(nsfw) Jon Karrie freeks out becuse he fourgut Pol... 1,054 20 (3.70)  2008-01-21
?_‡_ 838 17 (3.65)  2008-01-20
?25 841 8 (2.25)  2008-01-19
?(nsfw) Screwy Squirrel v2.0 1,363 19 (3.89)  2008-01-18
?¢ 544 14 (3.79)  2008-01-18
?SmileyRamperz© SillyDumperz© 889 19 (4.11)  2008-01-17
?¦‡¦‡¦&Da... 3,806 68 (3.99)  2008-01-16
?24 1,053 10 (3.70)  2008-01-14
?(nsfw) Sockie Sez™ 11: The Lost Levels 1,470 22 (3.95)  2008-01-13
?23 1,469 14 (3.71)  2008-01-13
?22 1,030 8 (3.63)  2008-01-13
?21 1,230 10 (3.80)  2008-01-12
?Silli Mussoliniz 757 28 (3.82)  2008-01-06
?╱¤╲ 634 12 (3.08)  2008-01-05
?(>|<) 1,150 18 (3.72)  2008-01-05
?20 1,922 45 (3.76)  2008-01-05
?(nsfw) */-\| 1,216 18 (3.39)  2008-01-02
?----> 645 23 (3.74)  2008-01-01
?<|>(- Yahalom -)<|> 656 29 (3.83)  2008-01-01
?® 1,237 39 (3.82)  2008-01-01
?Mister Duklaham 1,241 19 (3.74)  2008-01-01
?Tribute to Two Years of Lazytown 1,455 20 (3.50)  2008-01-01
?MOLGERATMND: Link fights Old Lady 1,456 24 (3.58)  2008-01-01
?MOLGERATMND 640 16 (3.50)  2008-01-01
?(nsfw) 4 Years, 11 Months, 20 Days 1,612 7 (3.71)  2007-12-31
?19 1,325 15 (3.53)  2007-12-31
?This song is awesome so it should be the new epic ... 1,338 17 (3.65)  2007-12-29
?|||||||||||||||||||||||||||||||||||||||||||||||||||||||||||||||||||||||||||||||||||||||||||||||||||||||||||||||||||||||||||||||| 2,322 37 (3.62)  2007-12-28
?Inchwurmz© 912 31 (3.65)  2007-12-27
?Chicken Nuggetz© 1,176 41 (3.93)  2007-12-24
?~/*\~ 1,374 34 (3.82)  2007-12-22
?PTKFGS: Connery Scat Duet 680 11 (2.55)  2007-12-18
?Moon Man makes sounds come out of his mouth to... 1,300 28 (3.64)  2007-12-16
?HappiLinkz© sees the WindFisherz© 801 23 (3.91)  2007-12-15
?Heh© 1,137 21 (3.81)  2007-12-13
?Funi Jokez© 598 17 (3.71)  2007-12-12
?Sockie Sez™ 10: Perfect Sockie™ 6,899 98 (3.36)  2007-12-09
?GOODTMND: GOODTMND 2,489 83 (2.51)  2007-12-08
?Lazytown is Awesome 1,050 14 (3.43)  2007-12-07
?A Tribute to Lazytown 853 15 (3.33)  2007-12-07
?Sockie Sez™ 9: Sockie™ in Space 1,152 28 (3.96)  2007-12-06
?Sockie Sez™ 8 3,342 26 (4.04)  2007-12-05
?Sockie Sez™ 7 961 20 (3.85)  2007-12-04
?Sockie Sez™ 6 929 20 (3.85)  2007-12-04
?18 1,376 12 (3.75)  2007-12-02
?17 1,585 24 (3.88)  2007-12-02
?o.y# 1,318 30 (4.07)  2007-12-02
?Beware Oblivion is at Hand 5,291 27 (3.96)  2007-12-01
?× 708 15 (4.00)  2007-12-01
?Command & Conquer Tribute! 1,161 20 (3.55)  2007-11-28
?The Legend of Zeldar©: Link Waking Up 1,540 38 (3.79)  2007-11-27
?╱¤╲ 929 26 (3.77)  2007-11-26
?POPE LANDO 2,582 33 (3.94)  2007-11-26
?Star Warz© 759 9 (3.56)  2007-11-26
?FORUM FORUM FORUMN IT S ADGIF UNREGG... 836 15 (3.80)  2007-11-25
?hihueghuwjsPLEASE NO CONSZ WITH A Z OR ... 530 8 (3.25)  2007-11-25
?(nsfw) jpegin paint vbadomg coffeejenghegbfuckh e... 952 7 (2.29)  2007-11-25
?(nsfw) train choochoo?!!(0™stokingz1m 1,266 7 (3.71)  2007-11-25
?(nsfw) Independence Crocker 1,373 7 (2.29)  2007-11-25
?Zeldnub Nekcihc© 716 16 (3.81)  2007-11-24
?Sockie Sez™ 5 769 15 (3.67)  2007-11-24
?Sockie Sez™ 4 1,253 21 (3.81)  2007-11-24
?Sockie Sez™ 3 1,195 23 (3.78)  2007-11-23
?Crom Crisp© Coting© 1,260 26 (3.88)  2007-11-23
?Sockie Sez™ 2 1,259 30 (3.70)  2007-11-22
?16 1,116 17 (3.82)  2007-11-21
?╱Φ╲ 668 15 (4.13)  2007-11-21
?Shakers Man is sad 446 18 (3.56)  2007-11-20
?Sonical Fasthog 3: Revenge of the Sonical™ 1,507 24 (3.96)  2007-11-19
?╱Φ╲ 911 28 (3.68)  2007-11-15
?Olmec 781 12 (3.08)  2007-10-28
?(nsfw) ,polish heaven, (Voat %) (LOL IT... 1,369 28 (3.57)  2007-10-27
?||||||||||||||||||||||||||||||||||||||||||||||||||||||||||||||||||||||||||||||||||||||||||||27|||||||||||||||||||||||||||||||||| 1,817 21 (3.86)  2007-10-27
?(nsfw) fag has achieved fagvana 1,152 16 (3.44)  2007-10-26
?(nsfw) Karrie visits another eerie and deserted count... 1,116 18 (3.56)  2007-10-26
?ree 612 8 (2.75)  2007-10-26
?Care has achieved Nirvana 1,003 5 (2.60)  2007-10-22
?15 1,030 8 (3.13)  2007-10-21
?14 984 8 (3.25)  2007-10-21
?/-------\ 520 7 (3.29)  2007-10-20
?Karrie is a skillfull forgetter (Voat 5) 974 7 (2.71)  2007-10-17
?!?TAHW 662 23 (3.74)  2007-10-15
?Bahá'u'lláh 614 3 (2.67)  2007-10-15
?(nsfw) Don't fall asleep next to Busch (Voat ... 1,583 17 (3.82)  2007-10-14
?Cloud defeats Sephiroth 1,419 18 (3.33)  2007-10-14
?ppt 618 5 (2.60)  2007-10-13
?iir 644 12 (3.75)  2007-10-13
?(nsfw) In Soviet Russia... 1,762 25 (3.44)  2007-10-11
?Lazy Town Bebop 3,538 25 (2.80)  2007-10-11
?IN SOVIET RUSSIA APPARENTLY THINGS GO ... 1,788 27 (3.44)  2007-10-11
?Pee Wee Hermit© is having fun 3,869 35 (4.11)  2007-10-10
?Final Fantasy 8 Tribute 1,781 20 (2.55)  2007-10-09
?Fourest gets up in the morning to make a "Yo... 1,395 39 (3.87)  2007-10-08
?Final Fantasy 7 Tribute 1,356 25 (2.92)  2007-10-07
?POLANDPOLANDPOLANDPOLANDPOLANDP... 2,586 63 (3.98)  2007-10-07
?Pee Wee Hermit© talks about Lazy Townz&c... 1,844 38 (3.47)  2007-10-06
?What if Zeus was Stephanie? 1,168 19 (2.26)  2007-10-06
?Dumbo Octopus talks about Facetta Nera 1,642 13 (4.08)  2007-10-05
?Aswang 891 4 (4.00)  2007-10-04
?||||||||||||||||||||||||||||||||||||||||||||||||||||||||||||||||||||||||||||||||26||||||||||||||||||||||||||||||||||||||||||||| 1,024 22 (3.41)  2007-10-04
?=||= 660 10 (3.20)  2007-10-04
?UNENTHUSIASTICALLYIMPROVISEDTMND: M... 696 21 (4.00)  2007-10-03
?MMMMMMAAAAAAAAAACCCGGGGGYYYY... 1,893 83 (3.90)  2007-10-03
?SONICAL FASTHOG 2 1,056 19 (3.58)  2007-10-02
?VR 1,032 13 (3.85)  2007-10-02
?GVRR 530 9 (3.33)  2007-10-02
?MGVRRRR 724 15 (3.73)  2007-10-01
?MCGYVRRRRRRRR 12,342 213 (3.92)  2007-10-01
?(nsfw) Dumbo Octopus© voices his opinion on... 1,200 7 (3.29)  2007-10-01
?RVEEEEEEEEEEEEEEEEEEEEEEEEEEEEEE... 2,091 68 (3.87)  2007-10-01
?MAAACGYVEEEEEEEEEEEEEEEEEEEEEEE... 2,273 83 (4.22)  2007-09-30
?(nsfw) Dumbo Octopus© talks about Lazy To... 1,439 19 (4.00)  2007-09-30
?(nsfw) Dumbo Octopus is going to keep saying this ... 1,172 7 (3.57)  2007-09-30
?(nsfw) Dumbo Octopus is going to keep saying this ... 1,284 6 (3.17)  2007-09-30
?(nsfw) Dumbo Octopus is going to keep saying this ... 824 5 (3.40)  2007-09-30
?(nsfw) Dumbo Octopus voices even more of his vie... 1,441 7 (3.29)  2007-09-30
?Dumbo Octopus talks about a friendly but naive kin... 2,094 4 (3.00)  2007-09-30
?Dumbo Octopus talks about Fish City 1,004 4 (3.00)  2007-09-30
?(nsfw) Dumbo Octopus voices his views on 9/11 1,722 15 (4.07)  2007-09-30
?(nsfw) Dumbo Octopus voices more of his views re... 1,912 8 (3.50)  2007-09-30
?(nsfw) Dumbo Octopus voices his views on Lazy To... 1,965 9 (3.56)  2007-09-30
?(nsfw) Dumbo Octopus voices his views on the Ung... 1,017 12 (3.67)  2007-09-30
?(nsfw) Dumbo Octopus CAN'T BELIEVE 1,107 6 (3.50)  2007-09-30
?(nsfw) FUCKING FUCK DUMBO OCTOPUS FUC... 1,962 11 (4.00)  2007-09-30
?ah hi 957 10 (3.90)  2007-09-29
?(nsfw) Care PNG 1,027 11 (3.09)  2007-09-28
?"Vito, we're praying for you.&quo... 667 23 (3.61)  2007-09-28
?(nsfw) 14 1,297 21 (3.33)  2007-09-27
?(nsfw) Bees 1,246 13 (3.69)  2007-09-27
?(nsfw) Kirbert©™ explains Kamaro&#03... 1,248 21 (4.00)  2007-09-27
?(nsfw) Resident FAGGOT 0 2,466 34 (4.03)  2007-09-26
?13 1,740 9 (3.67)  2007-09-26
?Jorje Busch gets high on PolandCam. 1,048 15 (3.73)  2007-09-26
?~Novus~Ordo~Seclorum~ 559 2 (3.00)  2007-09-25
?╱¤╲ 648 15 (3.47)  2007-09-25
?╱¤╲ 887 30 (3.43)  2007-09-25
?Heh 1,014 7 (3.43)  2007-09-24
?deltitnU 527 3 (3.00)  2007-09-24
?LOL I SAW SOMETHING FUNNY ON CNN LAST... 822 26 (3.42)  2007-09-24
?You Forgot Something 676 18 (3.56)  2007-09-23
?(nsfw) ╱¤╲ ╱¤╲ 529 15 (3.00)  2007-09-22
?(nsfw) Busch's Favorite Poland Invertation (V... 1,525 18 (3.67)  2007-09-22
?The Warsaw Incident 1,152 32 (3.81)  2007-09-21
?(nsfw) AN OLD TIME "YOOTMIND®&qu... 1,131 22 (3.45)  2007-09-20
?(nsfw) VOTE 5 ENDING leaked! 1,325 30 (3.57)  2007-09-19
?White Supremacist is Sad 897 6 (2.33)  2007-09-19
?(nsfw) Jorje Busch tells Karrie about forgetting Pole... 1,883 27 (3.63)  2007-09-18
?Oscar Lays it Out For Kidz© 951 26 (3.62)  2007-09-18
?That's not a flying chocolate maker 568 7 (3.14)  2007-09-17
?12 1,499 8 (3.25)  2007-09-16
?¦¦¦¦¦&brvb... 1,118 26 (3.54)  2007-09-16
?11 1,585 31 (3.84)  2007-09-15
?10 1,590 20 (3.55)  2007-09-15
?9 1,174 20 (3.65)  2007-09-15
?8 1,048 20 (3.80)  2007-09-15
?(nsfw) ╱¤╲ 1,240 17 (3.47)  2007-09-15
?7 723 9 (2.89)  2007-09-15
?6 1,747 16 (3.94)  2007-09-15
?5 1,615 28 (3.93)  2007-09-15
?PROPHETMUHAMMEDTMND: Epic Prophet Muh... 7,456 49 (4.29)  2007-09-15
?The pebbles on the beach are washed under the bri... 577 4 (2.50)  2007-09-15
?(nsfw) SOYLENT PEOPLE IS GREEN IS PEOPL... 1,258 15 (3.33)  2007-09-14
?SOYLENT PEOPLE IS GREEN 1,391 42 (3.83)  2007-09-14
?LOL SEE ITS COMMUNISM BUT ON A CAPITAL... 1,490 20 (2.95)  2007-09-13
?Sonic the Hedgehog 1,480 24 (3.63)  2007-09-12
?4 3,002 5 (4.00)  2007-09-11
?EDGEPRESERVINGSMOOTHTMND: You'... 715 14 (3.14)  2007-09-10
?Sith Trek 636 15 (1.47)  2007-09-10
?DUELOFTHEFATESTMND: SithFellas 704 13 (2.85)  2007-09-10
?WHAT IF GOD WAS STEPHANIE?! 1,228 22 (3.14)  2007-09-10
?DUELOFTHEFATESTMND: Lobster Wars 2,837 25 (3.28)  2007-09-09
?Captain Janusz Lukasz Pakardski of the ORP Antr... 1,030 28 (3.86)  2007-09-06
?Bloop 820 13 (3.15)  2007-09-06
?Megaman Rocks Out For Kidz© 801 19 (3.21)  2007-09-05
?|||||||||||||||||||||||||||||||||||||||||||||||||||||||||||||||25||||||||||||||||||||||||||||||||||||||||||||||||||||||| 1,768 13 (2.62)  2007-09-04
?New Paradigm 390 5 (1.80)  2007-09-04
?The Project 821 8 (2.00)  2007-09-04
?Ó 814 10 (3.70)  2007-09-04
?CAUTION HOT DOG PHONES 1,424 19 (3.63)  2007-09-03
?¥ 842 16 (3.00)  2007-09-03
?¬¬ 503 9 (2.78)  2007-09-03
?Ô 1,257 30 (3.80)  2007-09-03
?¤H¤e¤y¤L¤o... 651 6 (2.83)  2007-09-03
? 445 7 (2.86)  2007-09-03
?Вовик+Таныя 1,170 18 (3.39)  2007-09-03
?SAVEDOVERANDOVERAGAINASAJPEGAND... 618 15 (3.20)  2007-09-02
?lol Mussolini 1,885 48 (3.85)  2007-09-02
?Kacen makes a YTMND. 663 14 (3.93)  2007-09-02
?KAMARO'S DANCE 793 24 (3.63)  2007-09-02
?╱¤╲ 814 15 (2.40)  2007-09-02
?Shaolinwind can't take criticism. 1,430 53 (3.83)  2007-09-02
?Drowning man has something to say. 820 14 (3.00)  2007-09-01
?╱Φ╲ 883 27 (3.63)  2007-09-01
?╱Φ╲ 774 21 (4.24)  2007-09-01
?╱Φ╲ 1,014 46 (3.91)  2007-09-01
?Onkel Buch v2.0 2,529 122 (3.90)  2007-09-01
?Honey Dipper Dans 1,324 47 (3.98)  2007-09-01
?YTMND 982 30 (3.70)  2007-09-01
?® 1,230 29 (3.55)  2007-09-01
? 795 13 (3.46)  2007-09-01
?Busch reveals Polend to Karrie however Karrie get... 831 23 (3.78)  2007-09-01
?¤ 907 14 (2.71)  2007-09-01
?Smiley Happy Fun Times 461 8 (3.13)  2007-09-01
?Sigh...just getting this over with... 1,675 33 (3.85)  2007-09-01
?OH JESUS! OH GOD OH- OH JESUS GOD OH ... 31,271 567 (4.06)  2007-08-31
?~-|-~ 765 5 (3.00)  2007-08-31
?Francisco Francoz 721 9 (3.11)  2007-08-31
?╱¤╲ 775 16 (3.50)  2007-08-30
?Kacen checked the chest. 1,056 20 (3.35)  2007-08-30
?NSDAP Deutsche Reichs-Rave For Kidz© 964 20 (3.45)  2007-08-29
?Mike Richards! For Kidz© 791 25 (3.20)  2007-08-29
?Untitled 803 7 (3.29)  2007-08-29
?Hello, this is Moon Man. 2,313 36 (3.75)  2007-08-28
?FUCK FUCK FUCK VACUUM MOUTH SHIT 1,412 15 (2.87)  2007-08-28
?OH NOES For Kidz© 735 28 (3.82)  2007-08-28
?NWO 1,052 7 (2.43)  2007-08-28
?Just For Kidz© Deluxe Editionz© 652 13 (3.54)  2007-08-27
?Just For Kidz© 809 18 (3.72)  2007-08-27
?Hey guys whats going on? 720 11 (3.27)  2007-08-27
?ATTENTION: FBI LABORATORY 974 6 (3.00)  2007-08-27
?CAN YOU IMAGINE?! 850 8 (2.50)  2007-08-27
?(nsfw) Captain Piskywalker of the USS X-Wingter... 1,230 10 (3.20)  2007-08-27
?(nsfw) Cosby is outrageously Indestructible 1,191 7 (3.29)  2007-08-27
?Spoilers for Upcoming Harry Potter Book 783 11 (2.82)  2007-08-27
?Diabeetus Bebop 2,138 17 (2.88)  2007-08-27
?CAN YOU IMAGINE 916 25 (3.40)  2007-08-27
?I'm gonna be up all night, so your going ... 464 2 (3.00)  2007-08-26
?I lied. 560 4 (3.00)  2007-08-26
?CONGRESS ADDRESSES CONGRESS 1,420 47 (3.81)  2007-08-26
?I ran out of music. 901 20 (3.45)  2007-08-26
?I'm going to repost this with different music an... 469 7 (3.14)  2007-08-26
?ⱵΟΒ | ΗΚΑ 988 8 (3.50)  2007-08-26
?9/21/2007 960 12 (3.42)  2007-08-26
?Benito Mussoliniz 883 17 (3.65)  2007-08-26
?VIVA IL DUCE!!! 1,648 17 (3.41)  2007-08-25
?HP Pavilion a1010n 788 9 (3.22)  2007-08-25
?FACADE ADDRESSES CONGRESS 838 9 (3.11)  2007-08-25
?9/11 729 11 (3.09)  2007-08-25
?9/11 810 12 (3.00)  2007-08-25
?9/11 769 6 (3.00)  2007-08-25
?9/11 1,001 18 (2.72)  2007-08-25
?Dear Mr. Greenewald 744 13 (3.69)  2007-08-25
?I'm going to repost this with different music an... 871 8 (3.75)  2007-08-25
?Russian Rapz 518 10 (3.50)  2007-08-25
?Busch runs over Karrie due to his forgetting of Pole... 934 26 (3.62)  2007-08-25
?╱/¤\╲ 1,101 14 (3.21)  2007-08-23
?DNMTEIVOS 801 13 (3.85)  2007-08-23
?o.o 835 13 (3.23)  2007-08-23
?Gef 594 7 (3.14)  2007-08-22
?╱¤╲ 1,373 37 (3.30)  2007-08-21
?.batman 1,701 33 (3.94)  2007-08-21
?Care Found You 605 6 (3.50)  2007-08-21
?/ / / * / / / @ | | - | | | - - - ) (| } 566 9 (2.22)  2007-08-20
?hi 678 10 (2.00)  2007-08-19
?GOODBYE KARL ROVE! GOODBYE!!!!!! 2,336 20 (3.55)  2007-08-16
?Convergence 688 6 (2.50)  2007-08-15
?╱¤╲ 969 10 (2.50)  2007-08-14
?SpunjeBab in less than 2 Minutes and 41 Seconds. 980 31 (3.74)  2007-08-11
? 1,590 26 (3.73)  2007-08-11
?I'M AFRAID I ALREADY HAVE PLANS 1,143 22 (3.18)  2007-08-10
?Orb 1,168 16 (3.38)  2007-08-10
?It is Inebidable 2,486 12 (3.00)  2007-08-08
?Vincere 724 8 (2.50)  2007-08-08
?The Al Gore Effect 1,499 38 (3.42)  2007-08-06
?||||||||||||||||||||||||||||||||||||||||||||||||||||||||||||||||||||||||||||||24|||||||||||||||||||||||||||||||||||||| 1,928 18 (3.22)  2007-08-06
?Jorje Busch plays the Inverted Song of Polend (Vo... 1,389 24 (3.29)  2007-08-06
?Eduard von Grützner Falstaff 1,545 8 (2.75)  2007-08-06
?Above 1,494 12 (2.58)  2007-08-05
?Guild 1,320 9 (3.67)  2007-08-04
?/@\ 556 7 (2.14)  2007-08-02
?Obscure Memories 1 1,249 7 (3.29)  2007-08-01
?~Dust to Dust~ 1,168 8 (2.88)  2007-08-01
?- 1,071 30 (3.40)  2007-08-01
?Sean Connery rides a cow into battle against Eric B... 1,013 14 (2.14)  2007-08-01
?I|L|L|U|M|I|N|A|T|I 1,063 13 (3.15)  2007-08-01
?We're watching you. 800 18 (3.56)  2007-08-01
?|||||||||||||||||||||||||||||||||||||||||||||||||||||||||||||||||||||||||||||||||||||||||||||||||23||||||||||||||||||||||||||||| 1,670 17 (3.06)  2007-07-31
?Look 958 20 (2.50)  2007-07-31
?Glyph 1,245 11 (3.18)  2007-07-31
?OH MY GOD DON'T STOP NOW 4,100 39 (3.46)  2007-07-31
?*|*|*|*|*|*|*|*|*|*|*|*|*|*|*|*|*|*|*|*|*|*|*|*|*|*|*|*|*|*|*|*|*|*|*|*|*|*|*|*|*|*|... 1,036 21 (2.67)  2007-07-31
?Truth 1,149 13 (2.38)  2007-07-30
?Listen to the eye. 828 9 (3.22)  2007-07-30
?***~Novus Ordo Mundi~*** 1,178 21 (3.29)  2007-07-30
?The omen lies within. 1,533 19 (3.42)  2007-07-30
?Soon you will know. 999 9 (3.00)  2007-07-30
?/*\ 896 16 (3.25)  2007-07-30
?/@\@/@\@/@\@/@\@/@\@/@\@/@\@/@\@/@\... 1,361 55 (3.60)  2007-07-28
?Do you see? 1,074 24 (3.42)  2007-07-28
?Hello 1,062 4 (2.50)  2007-07-27
?(oo) 525 5 (1.80)  2007-07-27
?Kenyan man stares into your soul. 1,076 23 (3.09)  2007-07-26
?Care Focus 939 5 (2.60)  2007-07-22
?Virginity 28,624 538 (3.96)  2007-07-21
?CHOOOOOOCOLAAAAAAATE RAAAAAAA... 1,569 29 (3.59)  2007-07-14
?Pastor Travis for S-Mod 2,763 17 (3.18)  2007-07-09
?OH NO!!! 2,111 36 (3.03)  2007-07-07
?|||||||||||||||||||||||||||||||||||||||||||||||||||||||||||||||||||||||22|||||||||||||||||||||||||||||||||||||||||||||||| 2,203 27 (3.30)  2007-07-01
?1 Hour until Eon8's First Anniversary 1,488 23 (3.61)  2007-06-30
?||||||||||||||||||||||||||||||||||||||||||||||||||||||||||||||||||||||||||||||||||||||||||||||21|||||||||||||||||||||||||||||||| 2,660 35 (4.17)  2007-06-20
?g4wy3uy5etjt 1,905 33 (3.61)  2007-06-11
?╱¤╲ 2,608 25 (3.68)  2007-06-06
?I've learned so much! II 1,464 12 (3.67)  2007-05-29
?╱¤╲ 2,085 61 (3.95)  2007-05-29
?3 1,470 17 (4.00)  2007-05-22
?What the... 2,509 5 (2.60)  2007-05-20
?2 899 5 (3.00)  2007-05-20
?1 1,414 12 (3.25)  2007-05-20
?Dancing Pantsman Revisited 1,612 34 (4.00)  2007-05-20
?╱¤╲ 1,719 43 (3.70)  2007-05-15
?/ / / * / / / @ | | - | | | - - - ) (| } 1,526 28 (3.82)  2007-05-14
?|||||||||||||||||||||||||||||||||||||||||||||||||||||||||||||||||20||||||||||||||||||||||||||||||||||||||||| 1,869 15 (3.27)  2007-05-13
?|||||||||||||||||||||||||||||||/@\|||||||||||||||||||||||||||||| 1,409 18 (3.17)  2007-05-13
?Lambda 2,395 83 (3.61)  2007-05-12
?Peanut Butter & Jam Bebop 1,444 8 (2.38)  2007-05-12
?-/ 644 11 (3.55)  2007-05-10
?Հայաստանի Հա&# 871 5 (1.80)  2007-05-10
?Karrie sees a Polend (Voat 5) 1,135 28 (3.54)  2007-05-10
?SHOWERTMND: Sean Connery stabs Eric Baum... 1,117 16 (3.50)  2007-05-09
?||||||||||||||||||||||||||||||||||||||||||||||||||||||||||||||||||||||||||||||||||||||||||||19||||||||||||||||||||||||||||| 2,111 21 (3.29)  2007-05-03
?A Truly Epic Journey 1,305 19 (3.89)  2007-05-01
?Blank Space Stares into your Soul 922 33 (3.52)  2007-04-25
?Invalid Domain Name 1,187 15 (3.60)  2007-04-21
?BOOTLEGTMND: Chunk is Indestructible 1,937 44 (3.70)  2007-04-17
?Sean Connery is truly outrageous! 1,019 15 (2.07)  2007-04-16
?Brian Peppers and Picard face off for an epic battl... 2,018 18 (2.67)  2007-04-16
?Care 920 10 (3.50)  2007-04-16
?Brian Peppers is truely outrageous. 957 10 (2.80)  2007-04-15
?The Polandian HummingBush (Voat 5) 1,056 41 (3.63)  2007-04-15
?Flashing Tim Stares into your Soul 858 12 (3.17)  2007-04-15
?Karrie is a Poland sensation (Voat 5) 1,266 26 (3.77)  2007-04-14
?||||||||||||||||||||||||||||||||||||||||||||||||||||||||||||||||||18||||||||||||||||||||||||||||||||||||||||||||||||||| 1,931 23 (3.26)  2007-04-13
?Sean Connery defeats Eric Bauman in epic battle. 979 21 (3.90)  2007-04-12
?What do you sleep in Cowboy Curtis? 1,346 11 (3.00)  2007-04-09
?(nsfw) Brian Peppers is truely outrageous! 1,621 29 (3.21)  2007-03-21
?STOP MAKING OUTRAGEOUS SITES 1,081 32 (2.81)  2007-03-21
?Erac 949 10 (3.20)  2007-02-20
?╱¤╲ 1,164 15 (2.33)  2007-02-16
?||||||||||||||||||||||||||||||||||||||||||||||||||||||||||||||||||||||||17||||||||||||||||||||||||||||||||||||||||||||| 2,693 27 (3.59)  2007-02-10
?|||||||||||||||||||||||||||||||||||||||||||||||||||||||||||||||||||||||||||||||||16|||||||||||||||||||||||||||||||||||||| 3,692 73 (3.99)  2007-02-04
?(nsfw) NEON GENESIS POLANDGELION VOAT ... 3,315 53 (4.06)  2007-01-28
?Benito AmilCARE Mussolini 1,169 3 (2.33)  2007-01-20
?YTMND Not Safe for Work 867 5 (2.80)  2007-01-18
?You have Cared for the last time. 1,203 12 (3.75)  2007-01-17
?Care 1,129 8 (3.13)  2007-01-16
?FASTMND: Bill Cosby Pokemon 4,962 30 (3.40)  2007-01-16
?Communist Party USA has one weakness... 11,528 314 (4.00)  2007-01-15
?HAAAAAAAAAAAAAAAAAAAA 1,456 17 (3.29)  2007-01-07
?╱¤╲ 698 8 (2.00)  2007-01-05
?Apparently, I joined YTMNSFW tommorow. 1,652 17 (3.24)  2006-12-31
?╱¤╲ 1,359 14 (2.93)  2006-12-31
?Henchman busts out a facemelter. 4,801 76 (3.68)  2006-12-30
?Bum bum bum bum bum bum bum bum 3,275 24 (3.79)  2006-12-26
?Cookie Monster Rave 3,117 32 (3.50)  2006-12-19
?||||||||||||||||||||||||||||||||||||||||||||||||||||||||||||||||||||||||||||||15|||||||||||||||||||||||||||||||||||||||||| 4,167 31 (3.68)  2006-12-17
?|||||||||||||||||||||||||||||||||||||||||||||||||||||||||||||||||||||||||||||||||||||14||||||||||||||||||||||||||||||||||||||||| 4,628 54 (3.91)  2006-12-17
?Carepet Bombing 1,085 8 (3.25)  2006-12-07
?Care x# 681 7 (2.29)  2006-12-07
?Care 677 4 (2.00)  2006-12-07
?Emperor Pulpatine 1,269 12 (2.92)  2006-12-04
?Care Approaching 1,135 14 (3.07)  2006-12-02
?Pope Benedict has the Triforce 11,487 331 (3.95)  2006-11-24
?╱¤╲ 1,239 20 (3.45)  2006-11-21
?You know you've been on YTMND too long.... 1,175 24 (2.92)  2006-11-18
?Seinfeld finds a Glyph 2,741 81 (3.63)  2006-11-11
?Seinfeld is Creeped Out. 3,102 29 (3.83)  2006-11-10
?╱¤╲ 4,056 34 (3.62)  2006-11-09
?Abandoned Clown Train 11,036 31 (3.68)  2006-11-09
?Constant 715 12 (2.92)  2006-11-06
?╱¤╲ 40,468 65 (4.11)  2006-11-04
?/*\ 906 16 (2.38)  2006-11-04
?/@\ 962 20 (3.35)  2006-11-04
?Holy Crap, Sink Frog! 1,232 12 (2.50)  2006-11-03
?╱¤╲ 2,364 31 (3.71)  2006-11-01
?|||||||||||||||||||||||||||||||||||||||||||||||||||||||13|||||||||||||||||||||||||||||||||||| 7,481 58 (3.98)  2006-10-31
?||||||||||||||||||||||||||||||||||||||||||||||||||||||||||||||12||||||||||||||||||||||||||||||||||||| 4,052 57 (3.95)  2006-10-31
?╱¤╲ 1,449 46 (3.50)  2006-10-28
?You just kept staring and then it was too late... 8,398 81 (3.81)  2006-10-22
?I'm sorry... 5,388 223 (3.82)  2006-10-22
?╱¤╲ 3,181 117 (3.91)  2006-10-21
?|||||||||||||||||||||||||||||||||||||||||||||||||||||||||||||||||||||||||||||||||||||||||11||||||||||||||||||||||||||||||||||||| 5,567 66 (3.36)  2006-10-21
?m(oo)m 2,497 33 (3.61)  2006-10-20
?||||||||||||||||||||||||||||||||||||||||||||||||||||||||||||||||||||||||||||||||10|||||||||||||||||||||||||||||| 5,933 72 (3.85)  2006-10-18
?Mexican Policeman Attacked by Flying Humanoid ... 2,496 34 (3.59)  2006-10-18
?|||||||||||||||||||||||||||||||||||||||||||||||||||||||||||||||||||||||||||||||||||||||||||||9|||||||||||||||||||||||||||||||||| 8,686 105 (3.75)  2006-10-18
?|||||||||||||||||||||||||||||||||||||||||||||||||||||||||||||||||||||||||||||||||||||||||||8|||||||||||||||||||||||||||||||||||| 13,054 158 (4.04)  2006-10-14
?╱¤╲ 2,226 26 (3.27)  2006-10-14
?|||||||||||||||||||||||||||||||||||||||||||||||||||||||||||||||||||||||||||||||||||||||||||||||||7|||||||||||||||||||||||||||||| 10,620 130 (3.88)  2006-10-08
?||||||||||||||||||||||||||||||||||||||||||||||||||||||||||||||||||||||||||||||||6||||||||||||||||||| 8,102 110 (3.42)  2006-10-07
?||||||||||||||||||||||||||||||||||||||||||||||||||||||||||||||||||||||||||||||||||||||5||||||||||||||||||||||||||||||||||||||||| 11,441 94 (3.87)  2006-10-03
?||||||||||||||||||||||||||||||||||||||||||||||||||||||||||||||||||||||||||||||||||||4|||||||||||||||||||||||| 11,431 163 (4.02)  2006-10-03
?|||||||||||||||||||||||||||||||||||||||||||||||||||||||||3||||||||||||||||||||||||||| 80,915 954 (4.09)  2006-10-03
?The end of civilization as we know it... 22,107 715 (4.20)  2006-10-01
?Psycho Eel 1,448 25 (3.44)  2006-09-30
?The Endless Gunfight 1,912 18 (3.11)  2006-09-14
?Vegans are Interesting People 14,047 503 (4.02)  2006-09-12
?╱¤╲ 6,462 200 (3.76)  2006-09-11
?Innuendo 1,744 51 (3.73)  2006-09-10
?╱¤╲ 1,405 30 (3.07)  2006-09-08
?The Haunting of Mencia 2,425 34 (3.21)  2006-09-05
?╱/¤\╲ 1,223 32 (3.47)  2006-09-04
?╱¤╲ 1,325 20 (3.05)  2006-09-01
?╱¤╲ 3,031 17 (2.71)  2006-08-31
?Weird Smiley Ramp from Super Mario World Star... 3,693 29 (3.52)  2006-08-28
?Eye 1,749 30 (3.23)  2006-08-28
?Save him, hes drowning! 14,769 797 (4.35)  2006-08-27
?╱¤╲ 1,190 10 (1.90)  2006-08-24
?╱/¤\╲ 1,486 18 (3.22)  2006-08-24
?heh 1,831 29 (3.03)  2006-08-20
?╱¤╲ 2,305 18 (2.72)  2006-08-19
?sexymofo: The Investigation 8,464 231 (4.02)  2006-08-19
?(nsfw) ╱¤╲ 2,355 26 (2.27)  2006-08-18
?|||||||||||||||||||| 15,377 301 (4.02)  2006-08-18
?╱¤╲ 1,538 27 (3.56)  2006-08-17
?The Legend of... 2,575 40 (3.55)  2006-08-13
?╱¤╲ 1,670 26 (3.08)  2006-08-09
?Email Scam not Guaranteed 2,113 36 (3.53)  2006-07-12
?╱¤╲ 1,787 35 (3.26)  2006-06-21
?Papaya! 1,787 35 (3.00)  2006-06-18
?╱¤╲ 1,923 34 (3.06)  2006-05-20
?Lick the Llama! 3,441 57 (3.61)  2006-03-12
?Subliminal Greeno 5,413 69 (3.49)  2006-03-09